sensor_id;sensor_type;location;lat;lon;timestamp;pressure;altitude;pressure_sealevel;temperature;humidity
49835;BME280;35729;52.090;13.162;2022-07-04T00:02:09;100886.94;;;21.76;50.47
49835;BME280;35729;52.090;13.162;2022-07-04T00:04:40;100900.91;;;21.67;51.44
49835;BME280;35729;52.090;13.162;2022-07-04T00:07:08;100896.09;;;21.59;51.24
49835;BME280;35729;52.090;13.162;2022-07-04T00:09:37;100893.59;;;21.56;51.70
49835;BME280;35729;52.090;13.162;2022-07-04T00:12:06;100889.41;;;21.52;52.22
49835;BME280;35729;52.090;13.162;2022-07-04T00:14:35;100896.66;;;21.49;52.20
49835;BME280;35729;52.090;13.162;2022-07-04T00:17:04;100891.81;;;21.42;53.04
49835;BME280;35729;52.090;13.162;2022-07-04T00:19:32;100904.03;;;21.31;53.53
49835;BME280;35729;52.090;13.162;2022-07-04T00:22:04;100903.59;;;21.25;53.85
49835;BME280;35729;52.090;13.162;2022-07-04T00:24:32;100917.44;;;21.17;54.77
49835;BME280;35729;52.090;13.162;2022-07-04T00:27:01;100910.47;;;21.00;55.08
49835;BME280;35729;52.090;13.162;2022-07-04T00:29:29;100908.00;;;20.82;55.38
49835;BME280;35729;52.090;13.162;2022-07-04T00:31:58;100896.47;;;20.67;56.24
49835;BME280;35729;52.090;13.162;2022-07-04T00:34:27;100895.31;;;20.57;56.69
49835;BME280;35729;52.090;13.162;2022-07-04T00:36:56;100895.78;;;20.49;57.23
49835;BME280;35729;52.090;13.162;2022-07-04T00:39:27;100896.94;;;20.45;58.69
49835;BME280;35729;52.090;13.162;2022-07-04T00:41:56;100910.72;;;20.38;59.48
49835;BME280;35729;52.090;13.162;2022-07-04T00:44:24;100910.25;;;20.31;59.28
49835;BME280;35729;52.090;13.162;2022-07-04T00:46:53;100915.94;;;20.25;58.97
49835;BME280;35729;52.090;13.162;2022-07-04T00:49:21;100910.69;;;20.23;59.38
49835;BME280;35729;52.090;13.162;2022-07-04T00:51:50;100911.66;;;20.22;59.11
49835;BME280;35729;52.090;13.162;2022-07-04T00:54:19;100912.59;;;20.21;59.24
49835;BME280;35729;52.090;13.162;2022-07-04T00:56:50;100914.47;;;20.19;59.14
49835;BME280;35729;52.090;13.162;2022-07-04T00:59:19;100919.66;;;20.22;59.40
49835;BME280;35729;52.090;13.162;2022-07-04T01:01:48;100914.31;;;20.22;59.18
49835;BME280;35729;52.090;13.162;2022-07-04T01:04:17;100922.31;;;20.22;59.87
49835;BME280;35729;52.090;13.162;2022-07-04T01:06:46;100924.09;;;20.22;59.60
49835;BME280;35729;52.090;13.162;2022-07-04T01:09:15;100931.16;;;20.23;59.39
49835;BME280;35729;52.090;13.162;2022-07-04T01:11:43;100933.91;;;20.21;59.67
49835;BME280;35729;52.090;13.162;2022-07-04T01:14:15;100936.66;;;20.20;59.68
49835;BME280;35729;52.090;13.162;2022-07-04T01:16:43;100943.03;;;20.17;60.47
49835;BME280;35729;52.090;13.162;2022-07-04T01:19:12;100942.41;;;20.12;60.20
49835;BME280;35729;52.090;13.162;2022-07-04T01:21:43;100945.47;;;20.06;61.58
49835;BME280;35729;52.090;13.162;2022-07-04T01:24:12;100935.91;;;20.01;61.25
49835;BME280;35729;52.090;13.162;2022-07-04T01:26:40;100942.47;;;19.96;61.98
49835;BME280;35729;52.090;13.162;2022-07-04T01:29:09;100946.28;;;19.92;61.86
49835;BME280;35729;52.090;13.162;2022-07-04T01:31:37;100947.22;;;19.91;62.11
49835;BME280;35729;52.090;13.162;2022-07-04T01:34:06;100946.53;;;19.87;62.52
49835;BME280;35729;52.090;13.162;2022-07-04T01:36:34;100947.88;;;19.78;63.29
49835;BME280;35729;52.090;13.162;2022-07-04T01:39:05;100956.22;;;19.72;64.27
49835;BME280;35729;52.090;13.162;2022-07-04T01:41:34;100963.59;;;19.67;64.01
49835;BME280;35729;52.090;13.162;2022-07-04T01:44:03;100965.91;;;19.57;65.13
49835;BME280;35729;52.090;13.162;2022-07-04T01:46:32;100970.75;;;19.50;65.20
49835;BME280;35729;52.090;13.162;2022-07-04T01:49:00;100979.84;;;19.46;65.38
49835;BME280;35729;52.090;13.162;2022-07-04T01:51:29;100975.69;;;19.41;66.47
49835;BME280;35729;52.090;13.162;2022-07-04T01:53:57;100982.22;;;19.35;66.38
49835;BME280;35729;52.090;13.162;2022-07-04T01:56:28;100991.41;;;19.29;66.80
49835;BME280;35729;52.090;13.162;2022-07-04T01:58:57;100981.88;;;19.25;66.87
49835;BME280;35729;52.090;13.162;2022-07-04T02:01:39;100992.66;;;19.22;67.53
49835;BME280;35729;52.090;13.162;2022-07-04T02:04:11;100993.03;;;19.16;67.74
49835;BME280;35729;52.090;13.162;2022-07-04T02:06:39;100993.25;;;19.11;67.17
49835;BME280;35729;52.090;13.162;2022-07-04T02:09:08;100994.19;;;19.10;67.87
49835;BME280;35729;52.090;13.162;2022-07-04T02:11:48;100992.88;;;19.01;70.20
49835;BME280;35729;52.090;13.162;2022-07-04T02:14:29;100996.47;;;18.83;70.19
49835;BME280;35729;52.090;13.162;2022-07-04T02:16:58;100999.53;;;18.75;70.12
49835;BME280;35729;52.090;13.162;2022-07-04T02:19:27;101003.53;;;18.66;69.97
49835;BME280;35729;52.090;13.162;2022-07-04T02:21:55;101002.75;;;18.64;69.77
49835;BME280;35729;52.090;13.162;2022-07-04T02:24:24;101008.22;;;18.61;70.21
49835;BME280;35729;52.090;13.162;2022-07-04T02:26:55;101007.59;;;18.56;70.63
49835;BME280;35729;52.090;13.162;2022-07-04T02:29:23;101017.38;;;18.55;69.89
49835;BME280;35729;52.090;13.162;2022-07-04T02:31:52;101009.63;;;18.51;70.01
49835;BME280;35729;52.090;13.162;2022-07-04T02:34:21;101015.25;;;18.45;70.52
49835;BME280;35729;52.090;13.162;2022-07-04T02:36:49;101008.47;;;18.39;70.86
49835;BME280;35729;52.090;13.162;2022-07-04T02:39:18;101013.06;;;18.35;71.57
49835;BME280;35729;52.090;13.162;2022-07-04T02:41:46;101008.84;;;18.31;70.91
49835;BME280;35729;52.090;13.162;2022-07-04T02:44:18;101015.25;;;18.27;71.35
49835;BME280;35729;52.090;13.162;2022-07-04T02:46:46;101012.75;;;18.24;70.98
49835;BME280;35729;52.090;13.162;2022-07-04T02:49:15;101013.75;;;18.21;71.12
49835;BME280;35729;52.090;13.162;2022-07-04T02:51:43;101020.09;;;18.19;71.42
49835;BME280;35729;52.090;13.162;2022-07-04T02:54:12;101023.75;;;18.16;71.21
49835;BME280;35729;52.090;13.162;2022-07-04T02:56:41;101023.03;;;18.13;71.75
49835;BME280;35729;52.090;13.162;2022-07-04T02:59:09;101033.97;;;18.06;73.09
49835;BME280;35729;52.090;13.162;2022-07-04T03:01:41;101028.94;;;18.00;72.63
49835;BME280;35729;52.090;13.162;2022-07-04T03:04:09;101030.78;;;17.98;72.57
49835;BME280;35729;52.090;13.162;2022-07-04T03:06:38;101036.09;;;17.98;72.20
49835;BME280;35729;52.090;13.162;2022-07-04T03:09:08;101039.78;;;17.96;72.53
49835;BME280;35729;52.090;13.162;2022-07-04T03:11:37;101039.84;;;17.94;72.63
49835;BME280;35729;52.090;13.162;2022-07-04T03:14:05;101043.56;;;17.90;73.08
49835;BME280;35729;52.090;13.162;2022-07-04T03:16:34;101034.03;;;17.86;72.84
49835;BME280;35729;52.090;13.162;2022-07-04T03:19:05;101041.19;;;17.84;73.90
49835;BME280;35729;52.090;13.162;2022-07-04T03:21:34;101042.28;;;17.80;73.40
49835;BME280;35729;52.090;13.162;2022-07-04T03:24:02;101049.38;;;17.79;73.19
49835;BME280;35729;52.090;13.162;2022-07-04T03:26:33;101046.94;;;17.74;73.32
49835;BME280;35729;52.090;13.162;2022-07-04T03:29:02;101056.69;;;17.74;73.71
49835;BME280;35729;52.090;13.162;2022-07-04T03:31:30;101057.56;;;17.74;73.61
49835;BME280;35729;52.090;13.162;2022-07-04T03:33:59;101060.06;;;17.78;73.38
49835;BME280;35729;52.090;13.162;2022-07-04T03:36:30;101068.81;;;17.80;73.71
49835;BME280;35729;52.090;13.162;2022-07-04T03:38:59;101073.31;;;17.78;73.37
49835;BME280;35729;52.090;13.162;2022-07-04T03:41:27;101076.06;;;17.76;73.27
49835;BME280;35729;52.090;13.162;2022-07-04T03:43:56;101080.56;;;17.74;73.45
49835;BME280;35729;52.090;13.162;2022-07-04T03:46:24;101084.31;;;17.70;72.99
49835;BME280;35729;52.090;13.162;2022-07-04T03:48:53;101088.75;;;17.69;73.22
49835;BME280;35729;52.090;13.162;2022-07-04T03:51:21;101102.88;;;17.70;73.16
49835;BME280;35729;52.090;13.162;2022-07-04T03:53:53;101095.06;;;17.67;73.28
49835;BME280;35729;52.090;13.162;2022-07-04T03:56:21;101104.97;;;17.63;73.62
49835;BME280;35729;52.090;13.162;2022-07-04T03:58:50;101103.34;;;17.59;73.47
49835;BME280;35729;52.090;13.162;2022-07-04T04:01:19;101111.53;;;17.54;73.42
49835;BME280;35729;52.090;13.162;2022-07-04T04:03:47;101111.66;;;17.51;74.02
49835;BME280;35729;52.090;13.162;2022-07-04T04:06:28;101115.31;;;17.49;73.95
49835;BME280;35729;52.090;13.162;2022-07-04T04:08:59;101110.09;;;17.47;74.33
49835;BME280;35729;52.090;13.162;2022-07-04T04:11:28;101111.09;;;17.45;74.04
49835;BME280;35729;52.090;13.162;2022-07-04T04:13:56;101124.41;;;17.43;74.33
49835;BME280;35729;52.090;13.162;2022-07-04T04:16:25;101127.91;;;17.43;74.67
49835;BME280;35729;52.090;13.162;2022-07-04T04:18:53;101128.81;;;17.44;74.55
49835;BME280;35729;52.090;13.162;2022-07-04T04:21:22;101138.34;;;17.48;74.42
49835;BME280;35729;52.090;13.162;2022-07-04T04:23:51;101140.91;;;17.50;74.71
49835;BME280;35729;52.090;13.162;2022-07-04T04:26:22;101131.97;;;17.52;74.64
49835;BME280;35729;52.090;13.162;2022-07-04T04:28:50;101131.88;;;17.54;74.60
49835;BME280;35729;52.090;13.162;2022-07-04T04:31:19;101128.31;;;17.55;74.54
49835;BME280;35729;52.090;13.162;2022-07-04T04:33:47;101133.50;;;17.58;74.31
49835;BME280;35729;52.090;13.162;2022-07-04T04:36:16;101143.09;;;17.61;74.12
49835;BME280;35729;52.090;13.162;2022-07-04T04:38:45;101155.44;;;17.62;74.21
49835;BME280;35729;52.090;13.162;2022-07-04T04:41:13;101141.28;;;17.61;74.52
49835;BME280;35729;52.090;13.162;2022-07-04T04:43:44;101155.44;;;17.62;74.35
49835;BME280;35729;52.090;13.162;2022-07-04T04:46:13;101145.81;;;17.59;74.06
49835;BME280;35729;52.090;13.162;2022-07-04T04:48:42;101152.06;;;17.58;73.85
49835;BME280;35729;52.090;13.162;2022-07-04T04:51:10;101155.56;;;17.58;74.15
49835;BME280;35729;52.090;13.162;2022-07-04T04:53:39;101145.81;;;17.59;74.33
49835;BME280;35729;52.090;13.162;2022-07-04T04:56:07;101157.38;;;17.58;74.15
49835;BME280;35729;52.090;13.162;2022-07-04T04:58:36;101152.97;;;17.57;74.04
49835;BME280;35729;52.090;13.162;2022-07-04T05:01:07;101152.84;;;17.60;74.07
49835;BME280;35729;52.090;13.162;2022-07-04T05:03:43;101151.78;;;17.64;74.15
49835;BME280;35729;52.090;13.162;2022-07-04T05:06:18;101149.72;;;17.71;73.48
49835;BME280;35729;52.090;13.162;2022-07-04T05:08:46;101153.81;;;17.78;73.40
49835;BME280;35729;52.090;13.162;2022-07-04T05:11:15;101167.78;;;17.82;73.37
49835;BME280;35729;52.090;13.162;2022-07-04T05:13:43;101164.00;;;17.87;73.00
49835;BME280;35729;52.090;13.162;2022-07-04T05:16:14;101172.69;;;17.91;73.16
49835;BME280;35729;52.090;13.162;2022-07-04T05:18:43;101169.06;;;17.94;72.95
49835;BME280;35729;52.090;13.162;2022-07-04T05:21:11;101176.19;;;17.91;72.68
49835;BME280;35729;52.090;13.162;2022-07-04T05:23:40;101174.41;;;17.92;72.64
49835;BME280;35729;52.090;13.162;2022-07-04T05:26:08;101173.53;;;17.91;72.39
49835;BME280;35729;52.090;13.162;2022-07-04T05:28:37;101185.03;;;17.92;72.81
49835;BME280;35729;52.090;13.162;2022-07-04T05:31:05;101187.88;;;17.87;72.58
49835;BME280;35729;52.090;13.162;2022-07-04T05:33:36;101173.09;;;17.82;72.64
49835;BME280;35729;52.090;13.162;2022-07-04T05:36:05;101175.75;;;17.82;72.42
49835;BME280;35729;52.090;13.162;2022-07-04T05:38:34;101169.66;;;17.80;72.93
49835;BME280;35729;52.090;13.162;2022-07-04T05:41:02;101175.06;;;17.78;72.65
49835;BME280;35729;52.090;13.162;2022-07-04T05:43:31;101177.81;;;17.75;72.67
49835;BME280;35729;52.090;13.162;2022-07-04T05:45:59;101173.25;;;17.79;72.51
49835;BME280;35729;52.090;13.162;2022-07-04T05:48:29;101171.41;;;17.81;72.72
49835;BME280;35729;52.090;13.162;2022-07-04T05:51:00;101174.75;;;17.84;72.39
49835;BME280;35729;52.090;13.162;2022-07-04T05:53:28;101179.94;;;17.87;72.27
49835;BME280;35729;52.090;13.162;2022-07-04T05:55:57;101169.06;;;17.94;71.90
49835;BME280;35729;52.090;13.162;2022-07-04T05:58:26;101169.16;;;17.90;71.99
49835;BME280;35729;52.090;13.162;2022-07-04T06:00:55;101180.47;;;17.96;71.61
49835;BME280;35729;52.090;13.162;2022-07-04T06:03:23;101174.88;;;18.02;71.84
49835;BME280;35729;52.090;13.162;2022-07-04T06:05:52;101187.00;;;18.07;71.26
49835;BME280;35729;52.090;13.162;2022-07-04T06:08:24;101189.38;;;18.14;71.34
49835;BME280;35729;52.090;13.162;2022-07-04T06:10:52;101203.31;;;18.19;71.30
49835;BME280;35729;52.090;13.162;2022-07-04T06:13:21;101194.25;;;18.23;70.88
49835;BME280;35729;52.090;13.162;2022-07-04T06:15:49;101204.75;;;18.26;70.74
49835;BME280;35729;52.090;13.162;2022-07-04T06:18:18;101215.06;;;18.32;70.29
49835;BME280;35729;52.090;13.162;2022-07-04T06:20:46;101206.03;;;18.36;70.00
49835;BME280;35729;52.090;13.162;2022-07-04T06:23:15;101211.06;;;18.43;69.97
49835;BME280;35729;52.090;13.162;2022-07-04T06:25:46;101205.47;;;18.49;70.06
49835;BME280;35729;52.090;13.162;2022-07-04T06:28:15;101220.97;;;18.58;69.43
49835;BME280;35729;52.090;13.162;2022-07-04T06:30:43;101216.13;;;18.66;69.17
49835;BME280;35729;52.090;13.162;2022-07-04T06:33:12;101218.44;;;18.74;68.68
49835;BME280;35729;52.090;13.162;2022-07-04T06:35:40;101223.50;;;18.79;68.02
49835;BME280;35729;52.090;13.162;2022-07-04T06:38:17;101225.06;;;18.83;67.34
49835;BME280;35729;52.090;13.162;2022-07-04T06:40:48;101227.59;;;18.86;66.85
49835;BME280;35729;52.090;13.162;2022-07-04T06:43:17;101225.72;;;18.88;66.80
49835;BME280;35729;52.090;13.162;2022-07-04T06:45:46;101230.75;;;18.94;66.93
49835;BME280;35729;52.090;13.162;2022-07-04T06:48:14;101231.34;;;19.01;66.46
49835;BME280;35729;52.090;13.162;2022-07-04T06:50:43;101243.44;;;19.07;66.12
49835;BME280;35729;52.090;13.162;2022-07-04T06:53:12;101234.25;;;19.14;66.00
49835;BME280;35729;52.090;13.162;2022-07-04T06:55:41;101234.88;;;19.19;65.75
49835;BME280;35729;52.090;13.162;2022-07-04T06:58:12;101237.31;;;19.24;64.89
49835;BME280;35729;52.090;13.162;2022-07-04T07:00:41;101236.91;;;19.31;64.64
49835;BME280;35729;52.090;13.162;2022-07-04T07:03:10;101240.19;;;19.36;64.41
49835;BME280;35729;52.090;13.162;2022-07-04T07:05:39;101237.38;;;19.40;63.74
49835;BME280;35729;52.090;13.162;2022-07-04T07:08:08;101238.88;;;19.45;63.96
49835;BME280;35729;52.090;13.162;2022-07-04T07:10:36;101246.53;;;19.51;63.34
49835;BME280;35729;52.090;13.162;2022-07-04T07:13:05;101244.59;;;19.55;62.60
49835;BME280;35729;52.090;13.162;2022-07-04T07:15:36;101249.91;;;19.55;61.33
49835;BME280;35729;52.090;13.162;2022-07-04T07:18:05;101242.78;;;19.56;61.85
49835;BME280;35729;52.090;13.162;2022-07-04T07:20:34;101238.91;;;19.61;61.73
49835;BME280;35729;52.090;13.162;2022-07-04T07:23:02;101240.41;;;19.67;62.10
49835;BME280;35729;52.090;13.162;2022-07-04T07:25:31;101241.97;;;19.71;61.49
49835;BME280;35729;52.090;13.162;2022-07-04T07:28:00;101252.53;;;19.73;61.66
49835;BME280;35729;52.090;13.162;2022-07-04T07:30:28;101242.59;;;19.76;61.67
49835;BME280;35729;52.090;13.162;2022-07-04T07:32:59;101243.28;;;19.80;61.28
49835;BME280;35729;52.090;13.162;2022-07-04T07:35:28;101247.53;;;19.84;60.88
49835;BME280;35729;52.090;13.162;2022-07-04T07:37:56;101248.41;;;19.84;61.02
49835;BME280;35729;52.090;13.162;2022-07-04T07:40:25;101246.28;;;19.91;60.44
49835;BME280;35729;52.090;13.162;2022-07-04T07:42:53;101236.16;;;19.98;60.54
49835;BME280;35729;52.090;13.162;2022-07-04T07:45:23;101237.47;;;20.07;60.17
49835;BME280;35729;52.090;13.162;2022-07-04T07:47:51;101249.38;;;20.17;59.70
49835;BME280;35729;52.090;13.162;2022-07-04T07:50:22;101228.66;;;20.22;59.42
49835;BME280;35729;52.090;13.162;2022-07-04T07:52:51;101234.69;;;20.26;58.15
49835;BME280;35729;52.090;13.162;2022-07-04T07:55:19;101239.91;;;20.27;57.65
49835;BME280;35729;52.090;13.162;2022-07-04T07:57:48;101241.47;;;20.31;57.05
49835;BME280;35729;52.090;13.162;2022-07-04T08:00:17;101242.41;;;20.30;56.15
49835;BME280;35729;52.090;13.162;2022-07-04T08:02:46;101241.47;;;20.31;55.75
49835;BME280;35729;52.090;13.162;2022-07-04T08:05:29;101241.22;;;20.36;55.05
49835;BME280;35729;52.090;13.162;2022-07-04T08:07:58;101245.19;;;20.45;54.81
49835;BME280;35729;52.090;13.162;2022-07-04T08:10:27;101252.56;;;20.56;54.63
49835;BME280;35729;52.090;13.162;2022-07-04T08:12:55;101259.78;;;20.70;53.60
49835;BME280;35729;52.090;13.162;2022-07-04T08:15:24;101243.13;;;20.82;52.95
49835;BME280;35729;52.090;13.162;2022-07-04T08:17:53;101251.38;;;20.93;52.48
49835;BME280;35729;52.090;13.162;2022-07-04T08:20:21;101257.91;;;21.04;51.61
49835;BME280;35729;52.090;13.162;2022-07-04T08:22:53;101259.44;;;21.08;50.15
49835;BME280;35729;52.090;13.162;2022-07-04T08:25:21;101266.34;;;21.12;50.67
49835;BME280;35729;52.090;13.162;2022-07-04T08:27:50;101262.88;;;21.10;50.57
49835;BME280;35729;52.090;13.162;2022-07-04T08:30:18;101276.22;;;21.10;50.21
49835;BME280;35729;52.090;13.162;2022-07-04T08:32:47;101265.56;;;21.10;50.36
49835;BME280;35729;52.090;13.162;2022-07-04T08:35:15;101268.41;;;21.07;50.83
49835;BME280;35729;52.090;13.162;2022-07-04T08:37:44;101265.16;;;21.02;50.31
49835;BME280;35729;52.090;13.162;2022-07-04T08:40:17;101264.38;;;20.99;49.74
49835;BME280;35729;52.090;13.162;2022-07-04T08:42:45;101253.69;;;20.99;50.26
49835;BME280;35729;52.090;13.162;2022-07-04T08:45:15;101263.44;;;21.01;50.20
49835;BME280;35729;52.090;13.162;2022-07-04T08:47:46;101240.53;;;20.96;49.18
49835;BME280;35729;52.090;13.162;2022-07-04T08:50:24;101260.91;;;20.97;49.09
49835;BME280;35729;52.090;13.162;2022-07-04T08:52:59;101268.16;;;20.95;49.37
49835;BME280;35729;52.090;13.162;2022-07-04T08:55:32;101267.38;;;20.93;49.17
49835;BME280;35729;52.090;13.162;2022-07-04T08:58:13;101266.34;;;20.96;48.67
49835;BME280;35729;52.090;13.162;2022-07-04T09:00:56;101270.47;;;21.02;48.14
49835;BME280;35729;52.090;13.162;2022-07-04T09:03:26;101267.63;;;21.05;47.81
49835;BME280;35729;52.090;13.162;2022-07-04T09:05:56;101263.31;;;21.02;47.26
49835;BME280;35729;52.090;13.162;2022-07-04T09:08:25;101271.59;;;20.97;46.73
49835;BME280;35729;52.090;13.162;2022-07-04T09:10:56;101264.47;;;20.98;46.60
49835;BME280;35729;52.090;13.162;2022-07-04T09:13:25;101261.59;;;21.01;46.75
49835;BME280;35729;52.090;13.162;2022-07-04T09:15:53;101264.03;;;21.06;46.85
49835;BME280;35729;52.090;13.162;2022-07-04T09:18:23;101266.69;;;21.06;45.86
49835;BME280;35729;52.090;13.162;2022-07-04T09:20:53;101275.53;;;21.06;45.70
49835;BME280;35729;52.090;13.162;2022-07-04T09:23:23;101265.06;;;21.03;46.34
49835;BME280;35729;52.090;13.162;2022-07-04T09:26:11;101264.13;;;21.04;45.80
49835;BME280;35729;52.090;13.162;2022-07-04T09:28:41;101267.28;;;21.11;45.96
49835;BME280;35729;52.090;13.162;2022-07-04T09:31:17;101273.00;;;21.19;46.01
49835;BME280;35729;52.090;13.162;2022-07-04T09:33:51;101264.66;;;21.25;45.74
49835;BME280;35729;52.090;13.162;2022-07-04T09:36:21;101277.63;;;21.31;46.43
49835;BME280;35729;52.090;13.162;2022-07-04T09:39:09;101270.06;;;21.40;46.84
49835;BME280;35729;52.090;13.162;2022-07-04T09:41:59;101277.59;;;21.47;47.48
49835;BME280;35729;52.090;13.162;2022-07-04T09:44:43;101271.22;;;21.50;47.57
49835;BME280;35729;52.090;13.162;2022-07-04T09:47:20;101267.06;;;21.60;47.40
49835;BME280;35729;52.090;13.162;2022-07-04T09:49:58;101267.38;;;21.70;47.44
49835;BME280;35729;52.090;13.162;2022-07-04T09:52:26;101269.38;;;21.81;47.30
49835;BME280;35729;52.090;13.162;2022-07-04T09:54:59;101255.19;;;21.95;46.70
49835;BME280;35729;52.090;13.162;2022-07-04T09:57:31;101246.41;;;22.07;44.91
49835;BME280;35729;52.090;13.162;2022-07-04T10:00:21;101260.06;;;22.17;44.88
49835;BME280;35729;52.090;13.162;2022-07-04T10:02:51;101255.19;;;22.24;45.49
49835;BME280;35729;52.090;13.162;2022-07-04T10:05:22;101256.63;;;22.29;44.95
49835;BME280;35729;52.090;13.162;2022-07-04T10:07:52;101261.66;;;22.34;44.92
49835;BME280;35729;52.090;13.162;2022-07-04T10:10:24;101247.34;;;22.35;43.97
49835;BME280;35729;52.090;13.162;2022-07-04T10:12:57;101252.78;;;22.34;43.96
49835;BME280;35729;52.090;13.162;2022-07-04T10:15:26;101248.22;;;22.36;44.07
49835;BME280;35729;52.090;13.162;2022-07-04T10:17:55;101247.88;;;22.42;43.91
49835;BME280;35729;52.090;13.162;2022-07-04T10:20:24;101240.31;;;22.49;43.88
49835;BME280;35729;52.090;13.162;2022-07-04T10:22:52;101245.94;;;22.58;43.41
49835;BME280;35729;52.090;13.162;2022-07-04T10:25:21;101261.88;;;22.60;42.17
49835;BME280;35729;52.090;13.162;2022-07-04T10:27:58;101251.56;;;22.54;42.84
49835;BME280;35729;52.090;13.162;2022-07-04T10:30:28;101249.50;;;22.44;43.34
49835;BME280;35729;52.090;13.162;2022-07-04T10:32:59;101240.81;;;22.41;43.45
49835;BME280;35729;52.090;13.162;2022-07-04T10:35:47;101238.38;;;22.36;43.41
49835;BME280;35729;52.090;13.162;2022-07-04T10:38:17;101241.84;;;22.38;43.47
49835;BME280;35729;52.090;13.162;2022-07-04T10:40:47;101233.25;;;22.48;43.40
49835;BME280;35729;52.090;13.162;2022-07-04T10:43:42;101237.03;;;22.58;42.49
49835;BME280;35729;52.090;13.162;2022-07-04T10:46:46;101233.84;;;22.66;42.31
49835;BME280;35729;52.090;13.162;2022-07-04T10:49:24;101230.78;;;22.72;42.19
49835;BME280;35729;52.090;13.162;2022-07-04T10:51:54;101228.47;;;22.80;42.39
49835;BME280;35729;52.090;13.162;2022-07-04T10:54:29;101221.75;;;22.87;41.82
49835;BME280;35729;52.090;13.162;2022-07-04T10:57:09;101241.50;;;22.99;41.80
49835;BME280;35729;52.090;13.162;2022-07-04T10:59:42;101224.16;;;23.05;41.38
49835;BME280;35729;52.090;13.162;2022-07-04T11:02:26;101227.47;;;23.08;41.14
49835;BME280;35729;52.090;13.162;2022-07-04T11:04:57;101231.78;;;23.11;41.84
49835;BME280;35729;52.090;13.162;2022-07-04T11:07:59;101233.22;;;23.17;41.74
49835;BME280;35729;52.090;13.162;2022-07-04T11:10:30;101222.31;;;23.20;41.30
49835;BME280;35729;52.090;13.162;2022-07-04T11:13:15;101217.59;;;23.23;41.87
49835;BME280;35729;52.090;13.162;2022-07-04T11:16:02;101217.81;;;23.20;40.93
49835;BME280;35729;52.090;13.162;2022-07-04T11:18:39;101225.19;;;23.17;41.13
49835;BME280;35729;52.090;13.162;2022-07-04T11:21:21;101222.13;;;23.08;41.30
49835;BME280;35729;52.090;13.162;2022-07-04T11:23:52;101217.72;;;23.07;41.84
49835;BME280;35729;52.090;13.162;2022-07-04T11:26:21;101222.25;;;23.07;41.72
49835;BME280;35729;52.090;13.162;2022-07-04T11:28:50;101214.88;;;23.10;41.99
49835;BME280;35729;52.090;13.162;2022-07-04T11:31:34;101221.56;;;23.18;40.86
49835;BME280;35729;52.090;13.162;2022-07-04T11:34:03;101220.16;;;23.25;41.24
49835;BME280;35729;52.090;13.162;2022-07-04T11:36:31;101209.69;;;23.35;41.40
49835;BME280;35729;52.090;13.162;2022-07-04T11:39:02;101216.88;;;23.47;41.02
49835;BME280;35729;52.090;13.162;2022-07-04T11:41:32;101208.53;;;23.65;40.23
49835;BME280;35729;52.090;13.162;2022-07-04T11:44:15;101207.03;;;23.86;39.90
49835;BME280;35729;52.090;13.162;2022-07-04T11:47:09;101208.22;;;24.08;38.53
49835;BME280;35729;52.090;13.162;2022-07-04T11:49:47;101206.91;;;24.27;38.44
49835;BME280;35729;52.090;13.162;2022-07-04T11:52:17;101203.72;;;24.46;37.83
49835;BME280;35729;52.090;13.162;2022-07-04T11:54:48;101209.16;;;24.57;38.24
49835;BME280;35729;52.090;13.162;2022-07-04T11:57:19;101187.91;;;24.67;38.15
49835;BME280;35729;52.090;13.162;2022-07-04T11:59:56;101194.97;;;24.68;37.42
49835;BME280;35729;52.090;13.162;2022-07-04T12:02:29;101200.84;;;24.73;38.30
49835;BME280;35729;52.090;13.162;2022-07-04T12:04:58;101199.09;;;24.85;38.26
49835;BME280;35729;52.090;13.162;2022-07-04T12:07:29;101203.88;;;24.93;37.61
49835;BME280;35729;52.090;13.162;2022-07-04T12:10:07;101192.84;;;25.09;37.63
49835;BME280;35729;52.090;13.162;2022-07-04T12:12:50;101203.97;;;25.27;36.71
49835;BME280;35729;52.090;13.162;2022-07-04T12:15:20;101191.19;;;25.30;37.10
49835;BME280;35729;52.090;13.162;2022-07-04T12:17:53;101186.22;;;25.37;36.68
49835;BME280;35729;52.090;13.162;2022-07-04T12:20:23;101187.19;;;25.47;36.81
49835;BME280;35729;52.090;13.162;2022-07-04T12:22:53;101178.91;;;25.50;36.45
49835;BME280;35729;52.090;13.162;2022-07-04T12:25:24;101182.81;;;25.46;36.53
49835;BME280;35729;52.090;13.162;2022-07-04T12:27:55;101185.63;;;25.45;36.10
49835;BME280;35729;52.090;13.162;2022-07-04T12:30:24;101188.28;;;25.45;35.07
49835;BME280;35729;52.090;13.162;2022-07-04T12:32:58;101185.25;;;25.49;35.11
49835;BME280;35729;52.090;13.162;2022-07-04T12:35:38;101178.31;;;25.58;34.98
49835;BME280;35729;52.090;13.162;2022-07-04T12:38:08;101180.75;;;25.61;34.95
49835;BME280;35729;52.090;13.162;2022-07-04T12:40:50;101181.50;;;25.63;35.33
49835;BME280;35729;52.090;13.162;2022-07-04T12:43:19;101182.34;;;25.64;34.55
49835;BME280;35729;52.090;13.162;2022-07-04T12:45:49;101170.63;;;25.65;34.16
49835;BME280;35729;52.090;13.162;2022-07-04T12:48:24;101177.94;;;25.74;33.45
49835;BME280;35729;52.090;13.162;2022-07-04T12:50:54;101170.13;;;25.82;34.45
49835;BME280;35729;52.090;13.162;2022-07-04T12:53:22;101165.84;;;26.02;33.77
49835;BME280;35729;52.090;13.162;2022-07-04T12:55:51;101146.69;;;26.18;32.67
49835;BME280;35729;52.090;13.162;2022-07-04T12:58:19;101157.28;;;26.31;32.60
49835;BME280;35729;52.090;13.162;2022-07-04T13:00:48;101166.44;;;26.40;32.19